Terminal Aerodrome Forecast
Issued by NWS Wilmington, OH

Current Version | Previous Version | Graphics & Text | Print | Product List | Glossary On
Versions: 1 2 3 4 5 6 7 8 9 10 11 12 13 14 15 16 17 18 19 20 21 22 23
000
FTUS41 KILN 142300
TAFDAY
TAF
KDAY 142335Z 1500/1524 00000KT P6SM SKC
     FM150800 13004KT P6SM SCT250
     FM151400 18006KT P6SM BKN150
     FM151700 21008KT P6SM BKN150
     FM152200 22006KT P6SM VCSH BKN050 OVC080=

USA.gov is the U.S. government's official web portal to all federal, state and local government web resources and services.